Time;durP1;ratioP1;P1;durP2;ratioP2;P2;SDS_P1;SDS_P2;PMS_P1;PMS_P2;Temp;Humidity;BMP_temperature;BMP_pressure;BME280_temperature;BME280_humidity;BME280_pressure;Samples;Min_cycle;Max_cycle;Signal;HPM_P1;HPM_P2
2022/10/10 00:01:26;;;;;;;;;;;18.70;93.20;;;;;;5013841;28;19912;-25
2022/10/10 00:03:51;;;;;;;;;;;18.60;93.10;;;;;;5013493;28;19906;-26
2022/10/10 00:06:17;;;;;;;;;;;18.60;93.10;;;;;;5013580;28;19912;-25
2022/10/10 00:08:43;;;;;;;;;;;18.60;93.20;;;;;;5013750;28;19936;-25
2022/10/10 00:11:09;;;;;;;;;;;18.60;93.20;;;;;;5013532;28;19913;-25
2022/10/10 00:13:35;;;;;;;;;;;18.60;93.20;;;;;;5013563;28;20274;-25
2022/10/10 00:16:01;;;;;;;;;;;18.60;93.20;;;;;;5013367;28;19924;-25
2022/10/10 00:18:26;;;;;;;;;;;18.60;93.20;;;;;;5013443;28;19912;-26
2022/10/10 00:20:52;;;;;;;;;;;18.60;93.50;;;;;;5013538;28;19906;-25
2022/10/10 00:23:18;;;;;;;;;;;18.60;93.20;;;;;;5013161;28;19928;-25
2022/10/10 00:25:43;;;;;;;;;;;18.60;93.20;;;;;;5013047;28;19910;-27
2022/10/10 00:28:09;;;;;;;;;;;18.60;93.20;;;;;;5013242;28;19913;-26
2022/10/10 00:30:34;;;;;;;;;;;18.60;93.20;;;;;;5013220;28;20371;-26
2022/10/10 00:33:00;;;;;;;;;;;18.60;93.20;;;;;;5012719;28;19960;-26
2022/10/10 00:35:26;;;;;;;;;;;18.60;93.20;;;;;;5013196;28;19940;-26
2022/10/10 00:37:51;;;;;;;;;;;18.60;93.20;;;;;;5012984;28;19912;-26
2022/10/10 00:40:17;;;;;;;;;;;18.60;93.20;;;;;;5012746;28;19996;-25
2022/10/10 00:42:42;;;;;;;;;;;18.60;93.20;;;;;;5012877;28;19909;-25
2022/10/10 00:45:20;;;;;;;;;;;18.60;93.20;;;;;;5012714;28;19905;-25
2022/10/10 00:47:46;;;;;;;;;;;18.60;93.20;;;;;;5012765;28;20298;-25
2022/10/10 00:50:11;;;;;;;;;;;18.60;93.20;;;;;;5012859;28;19909;-25
2022/10/10 00:52:38;;;;;;;;;;;18.60;93.20;;;;;;5012575;28;19905;-26
2022/10/10 00:55:04;;;;;;;;;;;18.60;93.30;;;;;;5012856;28;19963;-25
2022/10/10 00:57:29;;;;;;;;;;;18.60;93.30;;;;;;5012778;28;19960;-25
2022/10/10 00:59:55;;;;;;;;;;;18.60;93.30;;;;;;5012601;28;20322;-25
2022/10/10 01:02:21;;;;;;;;;;;18.60;93.30;;;;;;5012824;28;19917;-25
2022/10/10 01:04:46;;;;;;;;;;;18.60;93.30;;;;;;5012560;28;19909;-25
2022/10/10 01:07:14;;;;;;;;;;;18.60;93.30;;;;;;5012541;28;19917;-26
2022/10/10 01:09:42;;;;;;;;;;;18.60;93.30;;;;;;5012448;28;20302;-25
2022/10/10 01:12:10;;;;;;;;;;;18.50;93.30;;;;;;5012765;28;19909;-26
2022/10/10 01:14:42;;;;;;;;;;;18.50;93.30;;;;;;5012265;28;19909;-26
2022/10/10 01:17:23;;;;;;;;;;;18.60;93.40;;;;;;5013145;28;19963;-25
2022/10/10 01:20:07;;;;;;;;;;;18.60;93.30;;;;;;5012394;28;19905;-25
2022/10/10 01:22:50;;;;;;;;;;;18.60;93.30;;;;;;5012434;28;19915;-25
2022/10/10 01:25:15;;;;;;;;;;;18.50;93.30;;;;;;5011205;28;19996;-25
2022/10/10 01:27:46;;;;;;;;;;;18.60;93.40;;;;;;5016189;28;20032;-25
2022/10/10 01:30:22;;;;;;;;;;;18.60;93.30;;;;;;5016650;28;19960;-25
2022/10/10 01:32:52;;;;;;;;;;;18.60;93.30;;;;;;5016465;28;19949;-25
2022/10/10 01:35:24;;;;;;;;;;;18.50;93.40;;;;;;5016579;28;19943;-25
2022/10/10 01:37:49;;;;;;;;;;;18.60;93.40;;;;;;5016127;28;19905;-25
2022/10/10 01:40:32;;;;;;;;;;;18.60;93.40;;;;;;5016144;28;20007;-25
2022/10/10 01:43:00;;;;;;;;;;;18.50;93.40;;;;;;5015812;28;19906;-25
2022/10/10 01:45:25;;;;;;;;;;;18.50;93.40;;;;;;5016090;28;20364;-26
2022/10/10 01:47:52;;;;;;;;;;;18.50;93.40;;;;;;5016118;28;19960;-26
2022/10/10 01:50:20;;;;;;;;;;;18.50;93.40;;;;;;5015917;28;19948;-25
2022/10/10 01:52:58;;;;;;;;;;;18.50;93.40;;;;;;5015918;28;20387;-25
2022/10/10 01:55:26;;;;;;;;;;;18.50;93.40;;;;;;5015869;28;19912;-25
2022/10/10 01:57:57;;;;;;;;;;;18.50;93.40;;;;;;5016073;28;19909;-26
2022/10/10 02:00:23;;;;;;;;;;;18.50;93.40;;;;;;5016110;28;20347;-25
2022/10/10 02:03:07;;;;;;;;;;;18.50;93.50;;;;;;5015634;28;19912;-25
2022/10/10 02:05:59;;;;;;;;;;;18.50;93.50;;;;;;5015829;28;19964;-25
2022/10/10 02:08:30;;;;;;;;;;;18.50;93.50;;;;;;5014606;28;20346;-26
2022/10/10 02:10:58;;;;;;;;;;;18.50;93.50;;;;;;5015737;28;19916;-26
2022/10/10 02:13:26;;;;;;;;;;;18.40;93.80;;;;;;5015570;28;20004;-25
2022/10/10 02:15:54;;;;;;;;;;;18.40;93.50;;;;;;5015522;28;19913;-26
2022/10/10 02:18:21;;;;;;;;;;;18.40;93.60;;;;;;5015399;28;20342;-25
2022/10/10 02:20:47;;;;;;;;;;;18.40;93.50;;;;;;5015789;28;19936;-25
2022/10/10 02:23:15;;;;;;;;;;;18.40;93.60;;;;;;5015457;28;20193;-25
2022/10/10 02:25:42;;;;;;;;;;;18.40;93.50;;;;;;5015480;28;19958;-25
2022/10/10 02:28:37;;;;;;;;;;;18.40;93.50;;;;;;5015235;28;19909;-25
2022/10/10 02:31:06;;;;;;;;;;;18.40;93.50;;;;;;5011062;28;19931;-25
2022/10/10 02:33:38;;;;;;;;;;;18.40;93.60;;;;;;5015110;28;19914;-26
2022/10/10 02:36:04;;;;;;;;;;;18.40;93.60;;;;;;5015059;28;20382;-25
2022/10/10 02:38:29;;;;;;;;;;;18.40;93.60;;;;;;5014942;28;19959;-25
2022/10/10 02:41:02;;;;;;;;;;;18.40;93.60;;;;;;5014797;28;20072;-25
2022/10/10 02:43:29;;;;;;;;;;;18.40;93.60;;;;;;5015049;28;19905;-25
2022/10/10 02:45:55;;;;;;;;;;;18.40;93.60;;;;;;5014820;28;19913;-25
2022/10/10 02:48:20;;;;;;;;;;;18.40;93.60;;;;;;5014839;28;19913;-26
2022/10/10 02:50:46;;;;;;;;;;;18.40;93.60;;;;;;5014918;28;19912;-25
2022/10/10 02:53:11;;;;;;;;;;;18.40;93.60;;;;;;5014842;28;20338;-25
2022/10/10 02:55:36;;;;;;;;;;;18.40;93.60;;;;;;5014691;28;19905;-26
2022/10/10 02:58:02;;;;;;;;;;;18.40;93.60;;;;;;5014837;28;19996;-25
2022/10/10 03:00:27;;;;;;;;;;;18.40;93.60;;;;;;5014714;28;20298;-25
2022/10/10 03:02:53;;;;;;;;;;;18.40;93.60;;;;;;5014444;28;19956;-25
2022/10/10 03:05:21;;;;;;;;;;;18.40;93.60;;;;;;5014719;28;19906;-25
2022/10/10 03:07:47;;;;;;;;;;;18.40;93.70;;;;;;5014254;28;20329;-25
2022/10/10 03:10:12;;;;;;;;;;;18.30;93.60;;;;;;5014492;28;19917;-25
2022/10/10 03:12:38;;;;;;;;;;;18.40;93.70;;;;;;5014369;28;19909;-26
2022/10/10 03:15:04;;;;;;;;;;;18.30;93.70;;;;;;5013893;28;20272;-25
2022/10/10 03:17:29;;;;;;;;;;;18.40;93.70;;;;;;5013916;28;19909;-25
2022/10/10 03:19:55;;;;;;;;;;;18.40;93.70;;;;;;5012971;28;19999;-25
2022/10/10 03:22:20;;;;;;;;;;;18.30;93.70;;;;;;5014185;28;20341;-25
2022/10/10 03:24:46;;;;;;;;;;;18.30;93.70;;;;;;5013860;28;19905;-25
2022/10/10 03:27:11;;;;;;;;;;;18.30;93.70;;;;;;5014099;28;19952;-25
2022/10/10 03:29:37;;;;;;;;;;;18.30;93.70;;;;;;5014211;28;20169;-26
2022/10/10 03:32:02;;;;;;;;;;;18.30;93.70;;;;;;5013984;28;19905;-25
2022/10/10 03:34:28;;;;;;;;;;;18.30;93.70;;;;;;5013725;28;19960;-25
2022/10/10 03:36:53;;;;;;;;;;;18.30;93.70;;;;;;5013908;28;19952;-25
2022/10/10 03:39:19;;;;;;;;;;;18.30;93.70;;;;;;5013992;28;19907;-25
2022/10/10 03:41:44;;;;;;;;;;;18.30;93.70;;;;;;5013843;28;19909;-26
2022/10/10 03:44:10;;;;;;;;;;;18.30;93.70;;;;;;5013858;28;19909;-25
2022/10/10 03:46:35;;;;;;;;;;;18.30;93.70;;;;;;5014040;28;19955;-25
2022/10/10 03:49:01;;;;;;;;;;;18.30;93.80;;;;;;5013215;28;19917;-25
2022/10/10 03:51:26;;;;;;;;;;;18.30;93.80;;;;;;5013650;28;20000;-25
2022/10/10 03:53:53;;;;;;;;;;;18.30;93.80;;;;;;5013607;28;19992;-25
2022/10/10 03:56:18;;;;;;;;;;;18.30;93.80;;;;;;5013603;28;20366;-25
2022/10/10 03:58:44;;;;;;;;;;;18.30;93.80;;;;;;5013644;28;19992;-25
2022/10/10 04:01:11;;;;;;;;;;;18.30;93.80;;;;;;5013561;28;19911;-25
2022/10/10 04:03:36;;;;;;;;;;;18.30;93.80;;;;;;5011916;28;19917;-25
2022/10/10 04:06:02;;;;;;;;;;;18.30;93.80;;;;;;5011929;28;19906;-25
2022/10/10 04:08:29;;;;;;;;;;;18.30;93.80;;;;;;5016193;28;19909;-25
2022/10/10 04:10:55;;;;;;;;;;;18.30;93.80;;;;;;5019047;28;20295;-25
2022/10/10 04:13:21;;;;;;;;;;;18.30;93.80;;;;;;5019054;28;19910;-25
2022/10/10 04:15:50;;;;;;;;;;;18.20;93.80;;;;;;5017383;28;20007;-25
2022/10/10 04:18:16;;;;;;;;;;;18.30;93.80;;;;;;5018609;28;19909;-25
2022/10/10 04:20:41;;;;;;;;;;;18.30;93.80;;;;;;5018424;28;19979;-25
2022/10/10 04:23:07;;;;;;;;;;;18.20;93.80;;;;;;5014366;28;19910;-25
2022/10/10 04:25:32;;;;;;;;;;;18.20;93.80;;;;;;5012984;28;19909;-25
2022/10/10 04:27:58;;;;;;;;;;;18.20;93.80;;;;;;5012978;28;19916;-26
2022/10/10 04:30:23;;;;;;;;;;;18.20;93.80;;;;;;5013258;28;19905;-25
2022/10/10 04:32:49;;;;;;;;;;;18.20;93.80;;;;;;5012914;28;19905;-26
2022/10/10 04:35:14;;;;;;;;;;;18.20;93.80;;;;;;5012956;28;20294;-26
2022/10/10 04:37:40;;;;;;;;;;;18.20;93.80;;;;;;5012725;28;19905;-25
2022/10/10 04:40:06;;;;;;;;;;;18.20;93.80;;;;;;5012838;28;19912;-26
2022/10/10 04:42:31;;;;;;;;;;;18.20;93.80;;;;;;5013082;28;19909;-25
2022/10/10 04:44:57;;;;;;;;;;;18.20;93.80;;;;;;5012661;28;19967;-26
2022/10/10 04:47:22;;;;;;;;;;;18.20;93.80;;;;;;5012766;28;19909;-25
2022/10/10 04:49:48;;;;;;;;;;;18.20;93.80;;;;;;5012738;28;19913;-26
2022/10/10 04:52:13;;;;;;;;;;;18.20;93.90;;;;;;5012778;28;19916;-25
2022/10/10 04:54:39;;;;;;;;;;;18.20;93.90;;;;;;5012436;28;19910;-26
2022/10/10 04:57:05;;;;;;;;;;;18.20;93.90;;;;;;5012571;28;20350;-26
2022/10/10 04:59:31;;;;;;;;;;;18.20;93.90;;;;;;5012812;28;19909;-25
2022/10/10 05:01:56;;;;;;;;;;;18.20;93.90;;;;;;5012074;28;19905;-26
2022/10/10 05:04:22;;;;;;;;;;;18.10;93.80;;;;;;5012403;28;19912;-25
2022/10/10 05:06:47;;;;;;;;;;;18.10;93.80;;;;;;5012344;28;19912;-25
2022/10/10 05:09:13;;;;;;;;;;;18.20;93.90;;;;;;5012202;28;19956;-25
2022/10/10 05:11:38;;;;;;;;;;;18.10;93.80;;;;;;5012244;28;19921;-26
2022/10/10 05:14:04;;;;;;;;;;;18.20;94.20;;;;;;5012087;28;20422;-26
2022/10/10 05:16:29;;;;;;;;;;;18.20;93.90;;;;;;5012174;28;20387;-25
2022/10/10 05:18:56;;;;;;;;;;;18.20;93.90;;;;;;5012513;28;19909;-25
2022/10/10 05:21:22;;;;;;;;;;;18.20;93.90;;;;;;5012218;28;19924;-25
2022/10/10 05:23:48;;;;;;;;;;;18.20;93.90;;;;;;5011947;28;19909;-27
2022/10/10 05:26:13;;;;;;;;;;;18.10;93.90;;;;;;5011855;28;19905;-26
2022/10/10 05:28:39;;;;;;;;;;;18.20;93.90;;;;;;5011976;28;19909;-27
2022/10/10 05:31:08;;;;;;;;;;;18.10;93.90;;;;;;5011997;28;20291;-26
2022/10/10 05:33:34;;;;;;;;;;;18.10;93.90;;;;;;5011901;28;19999;-27
2022/10/10 05:36:03;;;;;;;;;;;18.20;93.90;;;;;;5011818;28;19937;-27
2022/10/10 05:38:28;;;;;;;;;;;18.20;93.90;;;;;;5011926;28;19905;-25
2022/10/10 05:40:54;;;;;;;;;;;18.10;94.00;;;;;;5011916;28;19905;-27
2022/10/10 05:43:19;;;;;;;;;;;18.10;94.00;;;;;;5011759;28;19905;-26
2022/10/10 05:45:45;;;;;;;;;;;18.10;94.00;;;;;;5011981;28;19952;-25
2022/10/10 05:48:10;;;;;;;;;;;18.10;94.00;;;;;;5011879;28;19914;-26
2022/10/10 05:50:37;;;;;;;;;;;18.10;94.00;;;;;;5011829;28;20295;-26
2022/10/10 05:53:03;;;;;;;;;;;18.10;94.00;;;;;;5011649;28;20329;-26
2022/10/10 05:55:29;;;;;;;;;;;18.10;94.00;;;;;;5011774;28;19905;-27
2022/10/10 05:57:54;;;;;;;;;;;18.10;94.00;;;;;;5011772;28;19905;-27
2022/10/10 06:00:20;;;;;;;;;;;18.10;94.00;;;;;;5011920;28;20279;-26
2022/10/10 06:02:45;;;;;;;;;;;18.10;94.00;;;;;;5011577;28;20264;-26
2022/10/10 06:05:11;;;;;;;;;;;18.10;94.00;;;;;;5011466;28;20389;-27
2022/10/10 06:07:36;;;;;;;;;;;18.10;94.00;;;;;;5011649;28;19962;-27
2022/10/10 06:10:03;;;;;;;;;;;18.10;94.10;;;;;;5011691;28;19913;-26
2022/10/10 06:12:28;;;;;;;;;;;18.00;94.10;;;;;;5013235;28;19909;-26
2022/10/10 06:14:54;;;;;;;;;;;18.10;94.10;;;;;;5015100;28;19924;-26
2022/10/10 06:17:20;;;;;;;;;;;18.10;94.10;;;;;;5015126;28;19905;-26
2022/10/10 06:19:45;;;;;;;;;;;18.00;94.10;;;;;;5014973;28;19905;-26
2022/10/10 06:22:11;;;;;;;;;;;18.00;94.10;;;;;;5014985;28;19999;-26
2022/10/10 06:24:36;;;;;;;;;;;18.00;94.50;;;;;;5014826;28;20414;-26
2022/10/10 06:27:02;;;;;;;;;;;18.00;94.20;;;;;;5015003;28;20000;-26
2022/10/10 06:29:27;;;;;;;;;;;18.00;94.20;;;;;;5014834;28;19905;-26
2022/10/10 06:31:53;;;;;;;;;;;18.00;94.20;;;;;;5014868;28;19905;-26
2022/10/10 06:34:18;;;;;;;;;;;18.00;94.20;;;;;;5014444;28;19956;-27
2022/10/10 06:36:44;;;;;;;;;;;18.00;94.20;;;;;;5015041;28;19915;-26
2022/10/10 06:39:09;;;;;;;;;;;18.00;94.20;;;;;;5014807;28;19956;-26
2022/10/10 06:41:35;;;;;;;;;;;18.00;94.30;;;;;;5014644;28;20283;-26
2022/10/10 06:44:00;;;;;;;;;;;18.00;94.30;;;;;;5014549;28;19909;-26
2022/10/10 06:46:26;;;;;;;;;;;17.90;94.60;;;;;;5014387;28;19912;-26
2022/10/10 06:48:51;;;;;;;;;;;17.70;95.00;;;;;;5012947;28;19963;-26
2022/10/10 06:51:17;;;;;;;;;;;17.50;95.20;;;;;;5013091;28;20382;-26
2022/10/10 06:53:43;;;;;;;;;;;17.50;95.20;;;;;;5014396;28;19955;-26
2022/10/10 06:56:14;;;;;;;;;;;17.60;95.20;;;;;;5014505;28;20032;-26
2022/10/10 06:58:40;;;;;;;;;;;17.70;95.10;;;;;;5013215;28;20605;-26
2022/10/10 07:01:06;;;;;;;;;;;17.70;95.00;;;;;;5014257;28;20003;-26
2022/10/10 07:03:31;;;;;;;;;;;17.70;94.90;;;;;;5012592;28;20048;-26
2022/10/10 07:05:58;;;;;;;;;;;17.80;94.80;;;;;;5012731;28;20011;-27
2022/10/10 07:08:24;;;;;;;;;;;17.80;94.80;;;;;;5013941;28;20355;-25
2022/10/10 07:10:50;;;;;;;;;;;17.80;94.80;;;;;;5014127;28;19905;-27
2022/10/10 07:13:16;;;;;;;;;;;17.80;94.80;;;;;;5013814;28;19989;-25
2022/10/10 07:15:42;;;;;;;;;;;17.90;94.80;;;;;;5013870;28;19929;-26
2022/10/10 07:18:08;;;;;;;;;;;17.90;94.70;;;;;;5014265;28;19909;-25
2022/10/10 07:20:34;;;;;;;;;;;17.90;94.70;;;;;;5013838;28;19968;-25
2022/10/10 07:22:59;;;;;;;;;;;17.90;94.70;;;;;;5013347;28;19988;-25
2022/10/10 07:25:25;;;;;;;;;;;17.90;94.70;;;;;;5013446;28;19948;-25
2022/10/10 07:27:51;;;;;;;;;;;17.90;94.70;;;;;;5013718;28;19910;-25
2022/10/10 07:30:17;;;;;;;;;;;17.90;95.10;;;;;;5013750;28;20302;-25
2022/10/10 07:32:42;;;;;;;;;;;17.90;94.70;;;;;;5014060;28;19906;-25
2022/10/10 07:35:08;;;;;;;;;;;17.90;94.70;;;;;;5013759;28;19916;-25
2022/10/10 07:37:34;;;;;;;;;;;17.90;94.70;;;;;;5013688;28;19916;-25
2022/10/10 07:40:00;;;;;;;;;;;17.90;94.70;;;;;;5013668;28;19905;-25
2022/10/10 07:42:25;;;;;;;;;;;17.90;94.70;;;;;;5013428;28;19913;-25
2022/10/10 07:44:51;;;;;;;;;;;17.90;95.10;;;;;;5013940;28;19910;-25
2022/10/10 07:47:16;;;;;;;;;;;17.90;94.80;;;;;;5013843;28;20263;-25
2022/10/10 07:49:42;;;;;;;;;;;17.90;94.80;;;;;;5013296;28;19909;-25
2022/10/10 07:52:07;;;;;;;;;;;17.90;94.80;;;;;;5013310;28;20405;-25
2022/10/10 07:54:33;;;;;;;;;;;17.90;94.80;;;;;;5013371;28;19905;-25
2022/10/10 07:56:58;;;;;;;;;;;17.90;94.80;;;;;;5013691;28;19981;-25
2022/10/10 07:59:24;;;;;;;;;;;17.80;96.10;;;;;;5014280;28;19910;-25
2022/10/10 08:01:50;;;;;;;;;;;17.60;97.00;;;;;;5013176;28;20007;-25
2022/10/10 08:04:16;;;;;;;;;;;17.50;97.30;;;;;;5013019;28;19905;-25
2022/10/10 08:06:41;;;;;;;;;;;17.40;97.30;;;;;;5013300;28;19910;-25
2022/10/10 08:09:07;;;;;;;;;;;17.50;97.20;;;;;;5013161;28;19909;-26
2022/10/10 08:11:32;;;;;;;;;;;17.60;97.00;;;;;;5013160;28;19909;-25
2022/10/10 08:13:58;;;;;;;;;;;17.60;96.80;;;;;;5012967;28;19905;-25
2022/10/10 08:16:23;;;;;;;;;;;17.70;96.70;;;;;;5012832;28;19913;-25
2022/10/10 08:18:49;;;;;;;;;;;17.70;96.60;;;;;;5012836;28;19916;-25
2022/10/10 08:21:15;;;;;;;;;;;17.70;96.50;;;;;;5012862;28;19933;-25
2022/10/10 08:23:41;;;;;;;;;;;17.80;96.50;;;;;;5012730;28;20434;-25
2022/10/10 08:26:08;;;;;;;;;;;17.80;96.40;;;;;;5011334;28;20008;-25
2022/10/10 08:28:34;;;;;;;;;;;17.80;96.30;;;;;;5012941;28;20274;-25
2022/10/10 08:31:03;;;;;;;;;;;17.80;96.30;;;;;;5012558;28;20263;-25
2022/10/10 08:33:29;;;;;;;;;;;17.90;96.30;;;;;;5012357;28;19984;-25
2022/10/10 08:35:54;;;;;;;;;;;17.90;96.20;;;;;;5012406;28;20407;-26
2022/10/10 08:38:20;;;;;;;;;;;17.90;96.10;;;;;;5012699;28;19941;-25
2022/10/10 08:40:46;;;;;;;;;;;17.90;96.10;;;;;;5012435;28;19912;-25
2022/10/10 08:43:20;;;;;;;;;;;17.90;96.10;;;;;;5012220;28;19961;-25
2022/10/10 08:45:46;;;;;;;;;;;17.90;96.00;;;;;;5010992;28;19905;-25
2022/10/10 08:48:13;;;;;;;;;;;17.90;96.10;;;;;;5010941;28;19913;-25
2022/10/10 08:50:42;;;;;;;;;;;17.90;96.10;;;;;;5012560;28;19906;-25
2022/10/10 08:53:12;;;;;;;;;;;17.90;96.20;;;;;;5010931;28;20016;-25
2022/10/10 08:55:39;;;;;;;;;;;17.80;97.60;;;;;;5011806;28;19910;-25
2022/10/10 08:58:17;;;;;;;;;;;17.80;97.50;;;;;;5012360;28;19964;-25
2022/10/10 09:01:01;;;;;;;;;;;17.80;97.50;;;;;;5012168;28;19906;-25
2022/10/10 09:03:32;;;;;;;;;;;17.80;97.50;;;;;;5011583;28;20401;-25
2022/10/10 09:06:13;;;;;;;;;;;17.90;97.40;;;;;;5012118;28;19928;-25
2022/10/10 09:08:48;;;;;;;;;;;17.90;97.40;;;;;;5012138;28;19913;-25
2022/10/10 09:11:27;;;;;;;;;;;17.90;97.20;;;;;;5012418;28;19909;-25
2022/10/10 09:13:55;;;;;;;;;;;17.90;97.10;;;;;;5012228;28;19905;-25
2022/10/10 09:16:32;;;;;;;;;;;17.90;97.10;;;;;;5012271;28;20367;-22
2022/10/10 09:19:14;;;;;;;;;;;18.00;97.00;;;;;;5012248;28;19905;-26
2022/10/10 09:21:40;;;;;;;;;;;18.00;96.80;;;;;;5012533;28;19941;-25
2022/10/10 09:24:06;;;;;;;;;;;18.10;96.70;;;;;;5012335;28;20358;-25
2022/10/10 09:26:36;;;;;;;;;;;18.10;96.60;;;;;;5012364;28;19909;-25
2022/10/10 09:29:02;;;;;;;;;;;18.10;96.50;;;;;;5012404;28;19936;-25
2022/10/10 09:31:31;;;;;;;;;;;18.20;96.50;;;;;;5012476;28;19905;-25
2022/10/10 09:34:03;;;;;;;;;;;18.20;96.60;;;;;;5012038;28;19959;-25
2022/10/10 09:36:32;;;;;;;;;;;18.20;96.50;;;;;;5012077;28;19905;-25
2022/10/10 09:39:01;;;;;;;;;;;18.20;96.40;;;;;;5012374;28;19905;-25
2022/10/10 09:41:39;;;;;;;;;;;18.20;96.40;;;;;;5012164;28;19927;-25
2022/10/10 09:44:08;;;;;;;;;;;18.20;96.40;;;;;;5011616;28;19905;-25
2022/10/10 09:46:35;;;;;;;;;;;18.30;96.40;;;;;;5012147;28;19906;-25
2022/10/10 09:49:00;;;;;;;;;;;18.30;96.30;;;;;;5015712;28;19920;-25
2022/10/10 09:51:28;;;;;;;;;;;18.30;96.30;;;;;;5015727;28;20288;-26
2022/10/10 09:53:53;;;;;;;;;;;18.30;96.30;;;;;;5015505;28;19999;-25
2022/10/10 09:56:19;;;;;;;;;;;18.30;96.20;;;;;;5015595;28;19932;-25
2022/10/10 09:58:46;;;;;;;;;;;18.30;96.20;;;;;;5015480;28;19912;-25
2022/10/10 10:01:12;;;;;;;;;;;18.30;96.20;;;;;;5015982;28;19913;-25
2022/10/10 10:03:38;;;;;;;;;;;18.40;96.20;;;;;;5015511;28;19906;-25
2022/10/10 10:06:03;;;;;;;;;;;18.30;96.10;;;;;;5015591;28;19905;-25
2022/10/10 10:08:31;;;;;;;;;;;18.30;96.20;;;;;;5015491;28;19909;-25
2022/10/10 10:10:57;;;;;;;;;;;18.30;96.20;;;;;;5015660;28;19979;-26
2022/10/10 10:13:27;;;;;;;;;;;18.30;96.10;;;;;;5015022;28;19921;-26
2022/10/10 10:15:57;;;;;;;;;;;18.40;96.20;;;;;;5015110;28;20345;-25
2022/10/10 10:18:26;;;;;;;;;;;18.30;96.20;;;;;;5015358;28;20287;-26
2022/10/10 10:20:54;;;;;;;;;;;18.30;96.10;;;;;;5015342;28;19923;-25
2022/10/10 10:23:24;;;;;;;;;;;18.30;96.20;;;;;;5013863;28;19905;-26
2022/10/10 10:25:56;;;;;;;;;;;18.30;96.20;;;;;;5015015;28;20279;-25
2022/10/10 10:28:22;;;;;;;;;;;18.30;96.20;;;;;;5015126;28;19913;-26
2022/10/10 10:30:48;;;;;;;;;;;18.30;96.20;;;;;;5014968;28;19912;-27
2022/10/10 10:33:26;;;;;;;;;;;18.30;96.20;;;;;;5015031;28;19909;-25
2022/10/10 10:36:01;;;;;;;;;;;18.30;96.20;;;;;;5014989;28;19910;-25
2022/10/10 10:38:39;;;;;;;;;;;18.30;96.20;;;;;;5014810;28;19905;-25
2022/10/10 10:41:23;;;;;;;;;;;18.30;96.30;;;;;;5014724;28;20371;-25
2022/10/10 10:44:14;;;;;;;;;;;18.30;96.30;;;;;;5014467;28;19987;-27
2022/10/10 10:46:50;;;;;;;;;;;18.40;96.30;;;;;;5013377;28;19905;-25
2022/10/10 10:49:18;;;;;;;;;;;18.50;96.30;;;;;;5014809;28;20405;-25
2022/10/10 10:51:44;;;;;;;;;;;18.50;96.30;;;;;;5015123;28;19916;-25
2022/10/10 10:54:18;;;;;;;;;;;18.60;96.20;;;;;;5014436;28;19913;-26
2022/10/10 10:56:46;;;;;;;;;;;18.60;96.20;;;;;;5014512;28;20302;-25
2022/10/10 10:59:18;;;;;;;;;;;18.60;96.20;;;;;;5013606;28;19909;-27
2022/10/10 11:01:46;;;;;;;;;;;18.70;96.20;;;;;;5014571;28;19991;-26
2022/10/10 11:04:32;;;;;;;;;;;18.70;96.10;;;;;;5014039;28;19909;-25
2022/10/10 11:07:18;;;;;;;;;;;18.80;97.90;;;;;;5010702;28;19996;-25
2022/10/10 11:10:02;;;;;;;;;;;18.90;98.30;;;;;;5014454;28;19921;-26
2022/10/10 11:12:45;;;;;;;;;;;19.00;98.00;;;;;;5014471;28;19912;-25
2022/10/10 11:15:16;;;;;;;;;;;19.10;97.80;;;;;;5014342;28;19924;-25
2022/10/10 11:17:52;;;;;;;;;;;19.10;97.40;;;;;;5014483;28;20393;-25
2022/10/10 11:20:23;;;;;;;;;;;19.20;97.30;;;;;;5014966;28;19905;-25
2022/10/10 11:23:00;;;;;;;;;;;19.20;97.10;;;;;;5014411;28;19912;-25
2022/10/10 11:25:28;;;;;;;;;;;19.30;96.90;;;;;;5014318;28;19906;-25
2022/10/10 11:28:06;;;;;;;;;;;19.30;96.80;;;;;;5014255;28;19914;-25
2022/10/10 11:30:33;;;;;;;;;;;19.30;96.70;;;;;;5014163;28;19912;-25
2022/10/10 11:33:04;;;;;;;;;;;19.40;97.00;;;;;;5014052;28;20294;-25
2022/10/10 11:35:39;;;;;;;;;;;19.40;96.50;;;;;;5013950;28;19906;-25
2022/10/10 11:38:23;;;;;;;;;;;19.50;96.40;;;;;;5012631;28;19996;-26
2022/10/10 11:40:51;;;;;;;;;;;19.50;96.40;;;;;;5013709;28;19917;-26
2022/10/10 11:43:39;;;;;;;;;;;19.50;96.30;;;;;;5012236;28;19909;-27
2022/10/10 11:46:17;;;;;;;;;;;19.50;96.30;;;;;;5014014;28;19906;-25
2022/10/10 11:48:59;;;;;;;;;;;19.60;96.20;;;;;;5013742;28;19919;-27
2022/10/10 11:51:40;;;;;;;;;;;19.60;96.20;;;;;;5013979;28;20359;-25
2022/10/10 11:54:12;;;;;;;;;;;19.60;96.20;;;;;;5012315;28;19912;-26
2022/10/10 11:56:42;;;;;;;;;;;19.60;96.50;;;;;;5012310;28;19909;-25
2022/10/10 11:59:15;;;;;;;;;;;19.60;96.10;;;;;;5013612;28;20378;-25
2022/10/10 12:01:44;;;;;;;;;;;19.60;96.10;;;;;;5013652;28;19992;-26
2022/10/10 12:04:09;;;;;;;;;;;19.60;96.10;;;;;;5013525;28;19905;-27
2022/10/10 12:06:41;;;;;;;;;;;19.70;96.10;;;;;;5013552;28;19912;-26
2022/10/10 12:09:14;;;;;;;;;;;19.70;96.10;;;;;;5012018;28;19959;-25
2022/10/10 12:12:00;;;;;;;;;;;19.70;96.00;;;;;;5011565;28;20364;-27
2022/10/10 12:14:28;;;;;;;;;;;19.70;96.00;;;;;;5011150;28;19952;-26
2022/10/10 12:16:55;;;;;;;;;;;19.70;96.00;;;;;;5011720;28;19941;-25
2022/10/10 12:19:22;;;;;;;;;;;19.70;95.90;;;;;;5012963;28;19912;-27
2022/10/10 12:21:58;;;;;;;;;;;19.80;95.90;;;;;;5013054;28;19905;-25
2022/10/10 12:24:24;;;;;;;;;;;19.80;95.90;;;;;;5012549;28;20458;-25
2022/10/10 12:26:53;;;;;;;;;;;19.80;95.80;;;;;;5012880;28;19963;-26
2022/10/10 12:29:37;;;;;;;;;;;19.80;95.80;;;;;;5012845;28;19953;-27
2022/10/10 12:32:29;;;;;;;;;;;19.80;95.70;;;;;;5012911;28;19937;-25
2022/10/10 12:34:56;;;;;;;;;;;19.90;95.70;;;;;;5004073;28;20048;-26
2022/10/10 12:37:21;;;;;;;;;;;19.90;96.00;;;;;;5012847;28;19948;-25
2022/10/10 12:40:05;;;;;;;;;;;19.90;95.60;;;;;;5012839;28;20002;-25
2022/10/10 12:42:36;;;;;;;;;;;19.90;95.60;;;;;;5011059;28;19910;-25
2022/10/10 12:45:03;;;;;;;;;;;19.90;95.60;;;;;;5012692;28;20429;-27
2022/10/10 12:47:31;;;;;;;;;;;19.90;95.50;;;;;;5012440;28;19910;-26
2022/10/10 12:49:58;;;;;;;;;;;19.90;95.50;;;;;;5012507;28;19909;-26
2022/10/10 12:52:31;;;;;;;;;;;20.00;95.40;;;;;;5012337;28;19912;-25
2022/10/10 12:55:18;;;;;;;;;;;20.00;95.40;;;;;;5012345;28;20359;-25
2022/10/10 12:57:44;;;;;;;;;;;19.90;95.40;;;;;;5010855;28;19999;-26
2022/10/10 13:00:18;;;;;;;;;;;19.90;95.30;;;;;;5012369;28;19905;-26
2022/10/10 13:02:45;;;;;;;;;;;19.90;95.40;;;;;;5011950;28;20393;-25
2022/10/10 13:05:17;;;;;;;;;;;19.90;95.70;;;;;;5010859;28;20286;-26
2022/10/10 13:07:43;;;;;;;;;;;19.80;95.40;;;;;;5012238;28;19917;-27
2022/10/10 13:10:24;;;;;;;;;;;19.80;95.40;;;;;;5012257;28;19905;-26
2022/10/10 13:13:03;;;;;;;;;;;19.80;95.40;;;;;;5012149;28;19906;-26
2022/10/10 13:15:29;;;;;;;;;;;19.80;95.40;;;;;;5012103;28;20008;-25
2022/10/10 13:17:56;;;;;;;;;;;19.80;95.40;;;;;;4995327;28;19921;-25
2022/10/10 13:20:26;;;;;;;;;;;19.80;95.40;;;;;;5012722;28;19920;-25
2022/10/10 13:22:51;;;;;;;;;;;19.80;95.30;;;;;;5013747;28;19906;-25
2022/10/10 13:25:17;;;;;;;;;;;19.80;95.30;;;;;;5016744;28;19905;-25
2022/10/10 13:27:43;;;;;;;;;;;19.80;95.30;;;;;;5016465;28;19936;-26
2022/10/10 13:30:17;;;;;;;;;;;19.80;95.20;;;;;;5016345;28;19913;-25
2022/10/10 13:32:42;;;;;;;;;;;19.80;95.20;;;;;;5016033;28;19910;-26
2022/10/10 13:35:13;;;;;;;;;;;19.80;95.20;;;;;;5015807;28;19916;-27
2022/10/10 13:37:39;;;;;;;;;;;19.90;95.20;;;;;;5015918;28;19905;-27
2022/10/10 13:40:05;;;;;;;;;;;19.90;95.20;;;;;;5015812;28;19929;-26
2022/10/10 13:42:38;;;;;;;;;;;19.90;95.10;;;;;;5015421;28;20367;-27
2022/10/10 13:45:22;;;;;;;;;;;19.90;95.10;;;;;;5014330;28;19932;-25
2022/10/10 13:47:59;;;;;;;;;;;19.90;95.10;;;;;;5015488;28;19910;-26
2022/10/10 13:50:51;;;;;;;;;;;19.90;95.10;;;;;;5015724;28;19905;-27
2022/10/10 13:53:26;;;;;;;;;;;19.90;95.10;;;;;;5006777;28;19996;-26
2022/10/10 13:55:57;;;;;;;;;;;19.90;95.10;;;;;;5015300;28;19971;-26
2022/10/10 13:58:23;;;;;;;;;;;20.00;95.10;;;;;;5015293;28;19967;-26
2022/10/10 14:00:59;;;;;;;;;;;19.90;95.10;;;;;;5014158;28;20383;-27
2022/10/10 14:03:25;;;;;;;;;;;19.90;95.10;;;;;;5015081;28;19959;-26
2022/10/10 14:05:51;;;;;;;;;;;19.90;95.10;;;;;;5015215;28;20322;-27
2022/10/10 14:08:23;;;;;;;;;;;19.90;95.10;;;;;;5015117;28;19909;-25
2022/10/10 14:11:15;;;;;;;;;;;19.80;95.10;;;;;;5014964;28;19905;-25
2022/10/10 14:13:44;;;;;;;;;;;19.80;95.10;;;;;;5013989;28;19909;-27
2022/10/10 14:16:10;;;;;;;;;;;19.80;95.10;;;;;;5013874;28;20399;-25
2022/10/10 14:18:35;;;;;;;;;;;19.80;95.10;;;;;;5015036;28;20011;-27
2022/10/10 14:21:01;;;;;;;;;;;19.80;95.20;;;;;;5014867;28;19905;-27
2022/10/10 14:23:26;;;;;;;;;;;19.80;95.10;;;;;;5014835;28;19960;-26
2022/10/10 14:25:52;;;;;;;;;;;19.80;95.10;;;;;;5015020;28;19910;-26